sensor_id;sensor_type;location;lat;lon;timestamp;P1;durP1;ratioP1;P2;durP2;ratioP2
8636;SDS011;4356;49.068;8.658;2022-12-20T00:00:26;15.17;;;13.50;;
8636;SDS011;4356;49.068;8.658;2022-12-20T00:02:52;16.60;;;13.77;;
8636;SDS011;4356;49.068;8.658;2022-12-20T00:05:18;14.77;;;13.23;;
8636;SDS011;4356;49.068;8.658;2022-12-20T00:07:43;13.83;;;12.40;;
8636;SDS011;4356;49.068;8.658;2022-12-20T00:10:09;15.63;;;13.90;;
8636;SDS011;4356;49.068;8.658;2022-12-20T00:12:35;16.63;;;14.93;;
8636;SDS011;4356;49.068;8.658;2022-12-20T00:15:01;16.53;;;14.67;;
8636;SDS011;4356;49.068;8.658;2022-12-20T00:17:26;16.70;;;14.93;;
8636;SDS011;4356;49.068;8.658;2022-12-20T00:19:52;17.37;;;15.43;;
8636;SDS011;4356;49.068;8.658;2022-12-20T00:22:18;15.13;;;13.43;;
8636;SDS011;4356;49.068;8.658;2022-12-20T00:24:43;19.47;;;14.07;;
8636;SDS011;4356;49.068;8.658;2022-12-20T00:27:09;17.03;;;14.97;;
8636;SDS011;4356;49.068;8.658;2022-12-20T00:29:34;17.57;;;14.90;;
8636;SDS011;4356;49.068;8.658;2022-12-20T00:32:00;17.90;;;14.70;;
8636;SDS011;4356;49.068;8.658;2022-12-20T00:34:26;16.80;;;14.57;;
8636;SDS011;4356;49.068;8.658;2022-12-20T00:36:52;18.00;;;14.60;;
8636;SDS011;4356;49.068;8.658;2022-12-20T00:39:17;19.27;;;15.77;;
8636;SDS011;4356;49.068;8.658;2022-12-20T00:41:43;19.03;;;15.03;;
8636;SDS011;4356;49.068;8.658;2022-12-20T00:44:08;17.50;;;15.17;;
8636;SDS011;4356;49.068;8.658;2022-12-20T00:46:34;16.43;;;14.67;;
8636;SDS011;4356;49.068;8.658;2022-12-20T00:49:00;16.10;;;14.47;;
8636;SDS011;4356;49.068;8.658;2022-12-20T00:51:27;18.27;;;15.10;;
8636;SDS011;4356;49.068;8.658;2022-12-20T00:53:53;18.10;;;15.50;;
8636;SDS011;4356;49.068;8.658;2022-12-20T00:56:19;22.37;;;17.30;;
8636;SDS011;4356;49.068;8.658;2022-12-20T00:58:45;21.03;;;16.47;;
8636;SDS011;4356;49.068;8.658;2022-12-20T01:01:33;18.70;;;16.37;;
8636;SDS011;4356;49.068;8.658;2022-12-20T01:04:01;19.23;;;15.83;;
8636;SDS011;4356;49.068;8.658;2022-12-20T01:06:28;18.87;;;16.17;;
8636;SDS011;4356;49.068;8.658;2022-12-20T01:08:54;17.80;;;15.40;;
8636;SDS011;4356;49.068;8.658;2022-12-20T01:11:24;17.23;;;15.47;;
8636;SDS011;4356;49.068;8.658;2022-12-20T01:13:52;19.40;;;15.27;;
8636;SDS011;4356;49.068;8.658;2022-12-20T01:16:29;17.07;;;14.47;;
8636;SDS011;4356;49.068;8.658;2022-12-20T01:18:58;18.60;;;15.07;;
8636;SDS011;4356;49.068;8.658;2022-12-20T01:21:25;14.57;;;13.07;;
8636;SDS011;4356;49.068;8.658;2022-12-20T01:23:51;16.37;;;14.47;;
8636;SDS011;4356;49.068;8.658;2022-12-20T01:26:18;13.73;;;12.40;;
8636;SDS011;4356;49.068;8.658;2022-12-20T01:28:46;16.17;;;13.13;;
8636;SDS011;4356;49.068;8.658;2022-12-20T01:31:15;15.00;;;13.03;;
8636;SDS011;4356;49.068;8.658;2022-12-20T01:33:42;14.83;;;13.30;;
8636;SDS011;4356;49.068;8.658;2022-12-20T01:36:16;19.40;;;15.20;;
8636;SDS011;4356;49.068;8.658;2022-12-20T01:38:44;16.63;;;14.00;;
8636;SDS011;4356;49.068;8.658;2022-12-20T01:41:14;15.93;;;12.80;;
8636;SDS011;4356;49.068;8.658;2022-12-20T01:43:48;12.37;;;11.07;;
8636;SDS011;4356;49.068;8.658;2022-12-20T01:46:14;11.40;;;10.30;;
8636;SDS011;4356;49.068;8.658;2022-12-20T01:48:41;12.30;;;11.03;;
8636;SDS011;4356;49.068;8.658;2022-12-20T01:51:12;12.40;;;11.20;;
8636;SDS011;4356;49.068;8.658;2022-12-20T01:53:38;12.17;;;10.93;;
8636;SDS011;4356;49.068;8.658;2022-12-20T01:56:04;11.97;;;10.77;;
8636;SDS011;4356;49.068;8.658;2022-12-20T01:58:32;12.57;;;11.37;;
8636;SDS011;4356;49.068;8.658;2022-12-20T02:01:01;13.23;;;11.23;;
8636;SDS011;4356;49.068;8.658;2022-12-20T02:03:26;12.77;;;11.33;;
8636;SDS011;4356;49.068;8.658;2022-12-20T02:05:55;21.50;;;11.30;;
8636;SDS011;4356;49.068;8.658;2022-12-20T02:08:21;12.00;;;10.80;;
8636;SDS011;4356;49.068;8.658;2022-12-20T02:16:07;11.47;;;10.37;;
8636;SDS011;4356;49.068;8.658;2022-12-20T02:19:21;11.47;;;10.37;;
8636;SDS011;4356;49.068;8.658;2022-12-20T02:27:45;10.73;;;9.67;;
8636;SDS011;4356;49.068;8.658;2022-12-20T02:30:19;10.83;;;9.73;;
8636;SDS011;4356;49.068;8.658;2022-12-20T02:35:18;11.70;;;10.47;;
8636;SDS011;4356;49.068;8.658;2022-12-20T02:37:48;12.87;;;9.67;;
8636;SDS011;4356;49.068;8.658;2022-12-20T02:40:18;11.03;;;9.93;;
8636;SDS011;4356;49.068;8.658;2022-12-20T02:42:50;11.60;;;10.50;;
8636;SDS011;4356;49.068;8.658;2022-12-20T02:45:20;11.63;;;10.53;;
8636;SDS011;4356;49.068;8.658;2022-12-20T02:47:51;13.40;;;9.87;;
8636;SDS011;4356;49.068;8.658;2022-12-20T02:50:30;11.37;;;10.03;;
8636;SDS011;4356;49.068;8.658;2022-12-20T02:53:02;10.40;;;9.23;;
8636;SDS011;4356;49.068;8.658;2022-12-20T02:55:33;11.03;;;9.97;;
8636;SDS011;4356;49.068;8.658;2022-12-20T02:58:50;9.77;;;8.87;;
8636;SDS011;4356;49.068;8.658;2022-12-20T03:01:31;11.17;;;10.00;;
8636;SDS011;4356;49.068;8.658;2022-12-20T03:04:00;9.83;;;8.93;;
8636;SDS011;4356;49.068;8.658;2022-12-20T03:06:27;10.47;;;9.43;;
8636;SDS011;4356;49.068;8.658;2022-12-20T03:08:54;9.77;;;8.87;;
8636;SDS011;4356;49.068;8.658;2022-12-20T03:11:20;9.33;;;8.43;;
8636;SDS011;4356;49.068;8.658;2022-12-20T03:13:46;11.73;;;8.87;;
8636;SDS011;4356;49.068;8.658;2022-12-20T03:16:12;9.93;;;9.03;;
8636;SDS011;4356;49.068;8.658;2022-12-20T03:18:38;8.93;;;8.13;;
8636;SDS011;4356;49.068;8.658;2022-12-20T03:21:03;10.03;;;8.90;;
8636;SDS011;4356;49.068;8.658;2022-12-20T03:23:29;12.00;;;9.07;;
8636;SDS011;4356;49.068;8.658;2022-12-20T03:25:55;9.33;;;8.43;;
8636;SDS011;4356;49.068;8.658;2022-12-20T03:28:21;10.03;;;8.90;;
8636;SDS011;4356;49.068;8.658;2022-12-20T03:30:47;10.00;;;8.30;;
8636;SDS011;4356;49.068;8.658;2022-12-20T03:33:12;9.83;;;8.93;;
8636;SDS011;4356;49.068;8.658;2022-12-20T03:35:38;8.90;;;8.10;;
8636;SDS011;4356;49.068;8.658;2022-12-20T03:38:04;8.50;;;7.67;;
8636;SDS011;4356;49.068;8.658;2022-12-20T03:40:31;10.50;;;7.47;;
8636;SDS011;4356;49.068;8.658;2022-12-20T03:42:56;8.13;;;6.93;;
8636;SDS011;4356;49.068;8.658;2022-12-20T03:45:22;9.80;;;7.77;;
8636;SDS011;4356;49.068;8.658;2022-12-20T03:47:48;8.17;;;7.43;;
8636;SDS011;4356;49.068;8.658;2022-12-20T03:50:13;7.90;;;7.27;;
8636;SDS011;4356;49.068;8.658;2022-12-20T03:52:39;8.83;;;7.90;;
8636;SDS011;4356;49.068;8.658;2022-12-20T03:55:05;7.80;;;7.00;;
8636;SDS011;4356;49.068;8.658;2022-12-20T03:57:31;9.20;;;7.50;;
8636;SDS011;4356;49.068;8.658;2022-12-20T03:59:56;8.87;;;7.93;;
8636;SDS011;4356;49.068;8.658;2022-12-20T04:02:22;10.03;;;7.57;;
8636;SDS011;4356;49.068;8.658;2022-12-20T04:04:48;8.03;;;7.30;;
8636;SDS011;4356;49.068;8.658;2022-12-20T04:07:14;10.90;;;7.90;;
8636;SDS011;4356;49.068;8.658;2022-12-20T04:09:40;8.87;;;6.80;;
8636;SDS011;4356;49.068;8.658;2022-12-20T04:12:06;7.43;;;6.83;;
8636;SDS011;4356;49.068;8.658;2022-12-20T04:14:32;7.77;;;7.03;;
8636;SDS011;4356;49.068;8.658;2022-12-20T04:16:57;7.77;;;7.07;;
8636;SDS011;4356;49.068;8.658;2022-12-20T04:19:23;7.30;;;6.70;;
8636;SDS011;4356;49.068;8.658;2022-12-20T04:21:49;7.93;;;7.23;;
8636;SDS011;4356;49.068;8.658;2022-12-20T04:24:15;8.33;;;7.63;;
8636;SDS011;4356;49.068;8.658;2022-12-20T04:26:41;9.63;;;8.63;;
8636;SDS011;4356;49.068;8.658;2022-12-20T04:29:07;8.47;;;7.77;;
8636;SDS011;4356;49.068;8.658;2022-12-20T04:31:32;9.83;;;8.63;;
8636;SDS011;4356;49.068;8.658;2022-12-20T04:33:58;8.40;;;7.60;;
8636;SDS011;4356;49.068;8.658;2022-12-20T04:36:24;8.40;;;7.60;;
8636;SDS011;4356;49.068;8.658;2022-12-20T04:38:50;10.53;;;8.87;;
8636;SDS011;4356;49.068;8.658;2022-12-20T04:41:15;10.83;;;8.97;;
8636;SDS011;4356;49.068;8.658;2022-12-20T04:43:50;9.53;;;8.50;;
8636;SDS011;4356;49.068;8.658;2022-12-20T04:46:20;12.20;;;9.67;;
8636;SDS011;4356;49.068;8.658;2022-12-20T04:48:47;9.67;;;8.60;;
8636;SDS011;4356;49.068;8.658;2022-12-20T04:51:13;10.10;;;9.10;;
8636;SDS011;4356;49.068;8.658;2022-12-20T04:53:38;8.20;;;7.47;;
8636;SDS011;4356;49.068;8.658;2022-12-20T04:56:14;10.17;;;7.80;;
8636;SDS011;4356;49.068;8.658;2022-12-20T04:58:42;8.03;;;7.33;;
8636;SDS011;4356;49.068;8.658;2022-12-20T05:01:08;10.47;;;8.03;;
8636;SDS011;4356;49.068;8.658;2022-12-20T05:03:34;9.20;;;7.37;;
8636;SDS011;4356;49.068;8.658;2022-12-20T05:06:01;8.23;;;7.40;;
8636;SDS011;4356;49.068;8.658;2022-12-20T05:08:27;8.67;;;7.17;;
8636;SDS011;4356;49.068;8.658;2022-12-20T05:10:52;9.80;;;8.00;;
8636;SDS011;4356;49.068;8.658;2022-12-20T05:13:18;9.43;;;7.50;;
8636;SDS011;4356;49.068;8.658;2022-12-20T05:15:44;8.10;;;7.37;;
8636;SDS011;4356;49.068;8.658;2022-12-20T05:18:09;8.07;;;7.37;;
8636;SDS011;4356;49.068;8.658;2022-12-20T05:20:35;7.87;;;6.93;;
8636;SDS011;4356;49.068;8.658;2022-12-20T05:23:01;10.63;;;8.80;;
8636;SDS011;4356;49.068;8.658;2022-12-20T05:25:46;19.30;;;10.33;;
8636;SDS011;4356;49.068;8.658;2022-12-20T05:28:32;17.37;;;10.17;;
8636;SDS011;4356;49.068;8.658;2022-12-20T05:30:58;15.80;;;9.93;;
8636;SDS011;4356;49.068;8.658;2022-12-20T05:33:24;20.17;;;11.13;;
8636;SDS011;4356;49.068;8.658;2022-12-20T05:35:51;16.73;;;11.33;;
8636;SDS011;4356;49.068;8.658;2022-12-20T05:38:16;15.77;;;10.80;;
8636;SDS011;4356;49.068;8.658;2022-12-20T05:40:42;15.50;;;10.60;;
8636;SDS011;4356;49.068;8.658;2022-12-20T05:43:08;15.40;;;9.80;;
8636;SDS011;4356;49.068;8.658;2022-12-20T05:45:34;15.53;;;9.80;;
8636;SDS011;4356;49.068;8.658;2022-12-20T05:48:00;17.10;;;10.30;;
8636;SDS011;4356;49.068;8.658;2022-12-20T05:50:26;10.30;;;8.70;;
8636;SDS011;4356;49.068;8.658;2022-12-20T05:52:51;9.87;;;8.13;;
8636;SDS011;4356;49.068;8.658;2022-12-20T05:55:17;9.60;;;8.60;;
8636;SDS011;4356;49.068;8.658;2022-12-20T05:57:43;6.93;;;6.43;;
8636;SDS011;4356;49.068;8.658;2022-12-20T06:00:09;7.07;;;6.40;;
8636;SDS011;4356;49.068;8.658;2022-12-20T06:02:35;6.80;;;6.20;;
8636;SDS011;4356;49.068;8.658;2022-12-20T06:05:01;6.77;;;6.27;;
8636;SDS011;4356;49.068;8.658;2022-12-20T06:07:27;7.00;;;6.40;;
8636;SDS011;4356;49.068;8.658;2022-12-20T06:09:53;8.17;;;7.37;;
8636;SDS011;4356;49.068;8.658;2022-12-20T06:12:19;7.87;;;7.17;;
8636;SDS011;4356;49.068;8.658;2022-12-20T06:14:47;9.20;;;7.10;;
8636;SDS011;4356;49.068;8.658;2022-12-20T06:17:13;7.33;;;6.73;;
8636;SDS011;4356;49.068;8.658;2022-12-20T06:19:38;8.00;;;7.30;;
8636;SDS011;4356;49.068;8.658;2022-12-20T06:22:06;8.10;;;7.27;;
8636;SDS011;4356;49.068;8.658;2022-12-20T06:24:33;7.77;;;7.07;;
8636;SDS011;4356;49.068;8.658;2022-12-20T06:26:59;7.33;;;6.63;;
8636;SDS011;4356;49.068;8.658;2022-12-20T06:29:25;8.03;;;7.33;;
8636;SDS011;4356;49.068;8.658;2022-12-20T06:31:51;14.93;;;6.77;;
8636;SDS011;4356;49.068;8.658;2022-12-20T06:34:17;7.43;;;6.80;;
8636;SDS011;4356;49.068;8.658;2022-12-20T06:36:43;7.87;;;7.17;;
8636;SDS011;4356;49.068;8.658;2022-12-20T06:39:09;8.57;;;6.40;;
8636;SDS011;4356;49.068;8.658;2022-12-20T06:41:35;10.50;;;7.10;;
8636;SDS011;4356;49.068;8.658;2022-12-20T06:44:04;6.87;;;6.20;;
8636;SDS011;4356;49.068;8.658;2022-12-20T06:46:30;9.63;;;8.10;;
8636;SDS011;4356;49.068;8.658;2022-12-20T06:48:56;9.20;;;8.10;;
8636;SDS011;4356;49.068;8.658;2022-12-20T06:51:25;8.30;;;7.50;;
8636;SDS011;4356;49.068;8.658;2022-12-20T06:53:56;9.83;;;8.90;;
8636;SDS011;4356;49.068;8.658;2022-12-20T06:56:22;8.90;;;8.10;;
8636;SDS011;4356;49.068;8.658;2022-12-20T06:58:49;21.90;;;17.03;;
8636;SDS011;4356;49.068;8.658;2022-12-20T07:01:15;20.60;;;17.67;;
8636;SDS011;4356;49.068;8.658;2022-12-20T07:03:40;20.10;;;15.17;;
8636;SDS011;4356;49.068;8.658;2022-12-20T07:06:13;13.13;;;11.37;;
8636;SDS011;4356;49.068;8.658;2022-12-20T07:08:40;10.83;;;9.83;;
8636;SDS011;4356;49.068;8.658;2022-12-20T07:11:06;16.23;;;14.17;;
8636;SDS011;4356;49.068;8.658;2022-12-20T07:13:33;23.83;;;14.67;;
8636;SDS011;4356;49.068;8.658;2022-12-20T07:16:03;13.77;;;12.43;;
8636;SDS011;4356;49.068;8.658;2022-12-20T07:18:29;14.40;;;12.17;;
8636;SDS011;4356;49.068;8.658;2022-12-20T07:20:58;11.57;;;10.27;;
8636;SDS011;4356;49.068;8.658;2022-12-20T07:23:25;10.77;;;9.67;;
8636;SDS011;4356;49.068;8.658;2022-12-20T07:25:57;19.87;;;17.30;;
8636;SDS011;4356;49.068;8.658;2022-12-20T07:28:25;24.07;;;21.10;;
8636;SDS011;4356;49.068;8.658;2022-12-20T07:30:52;21.50;;;17.93;;
8636;SDS011;4356;49.068;8.658;2022-12-20T07:33:18;15.57;;;13.07;;
8636;SDS011;4356;49.068;8.658;2022-12-20T07:35:44;11.73;;;10.53;;
8636;SDS011;4356;49.068;8.658;2022-12-20T07:38:13;12.23;;;10.93;;
8636;SDS011;4356;49.068;8.658;2022-12-20T07:40:40;7.90;;;6.97;;
8636;SDS011;4356;49.068;8.658;2022-12-20T07:43:06;6.80;;;6.30;;
8636;SDS011;4356;49.068;8.658;2022-12-20T07:45:33;6.13;;;5.40;;
8636;SDS011;4356;49.068;8.658;2022-12-20T07:47:58;6.10;;;5.67;;
8636;SDS011;4356;49.068;8.658;2022-12-20T07:50:25;8.37;;;5.90;;
8636;SDS011;4356;49.068;8.658;2022-12-20T07:52:52;8.10;;;6.43;;
8636;SDS011;4356;49.068;8.658;2022-12-20T07:55:19;8.17;;;6.83;;
8636;SDS011;4356;49.068;8.658;2022-12-20T07:57:55;8.73;;;8.03;;
8636;SDS011;4356;49.068;8.658;2022-12-20T08:00:26;8.20;;;7.43;;
8636;SDS011;4356;49.068;8.658;2022-12-20T08:02:54;8.67;;;7.70;;
8636;SDS011;4356;49.068;8.658;2022-12-20T08:05:25;13.77;;;11.50;;
8636;SDS011;4356;49.068;8.658;2022-12-20T08:07:51;11.27;;;10.07;;
8636;SDS011;4356;49.068;8.658;2022-12-20T08:10:20;12.80;;;10.30;;
8636;SDS011;4356;49.068;8.658;2022-12-20T08:12:46;10.80;;;9.67;;
8636;SDS011;4356;49.068;8.658;2022-12-20T08:15:14;10.67;;;9.67;;
8636;SDS011;4356;49.068;8.658;2022-12-20T08:17:40;10.37;;;9.27;;
8636;SDS011;4356;49.068;8.658;2022-12-20T08:20:06;10.63;;;9.53;;
8636;SDS011;4356;49.068;8.658;2022-12-20T08:22:33;9.53;;;8.63;;
8636;SDS011;4356;49.068;8.658;2022-12-20T08:24:59;10.57;;;9.53;;
8636;SDS011;4356;49.068;8.658;2022-12-20T08:27:25;11.20;;;9.47;;
8636;SDS011;4356;49.068;8.658;2022-12-20T08:29:51;12.27;;;9.83;;
8636;SDS011;4356;49.068;8.658;2022-12-20T08:32:16;10.70;;;9.57;;
8636;SDS011;4356;49.068;8.658;2022-12-20T08:34:43;10.50;;;9.37;;
8636;SDS011;4356;49.068;8.658;2022-12-20T08:37:08;10.60;;;9.50;;
8636;SDS011;4356;49.068;8.658;2022-12-20T08:39:34;10.63;;;9.63;;
8636;SDS011;4356;49.068;8.658;2022-12-20T08:42:00;11.83;;;9.33;;
8636;SDS011;4356;49.068;8.658;2022-12-20T08:44:25;9.63;;;8.70;;
8636;SDS011;4356;49.068;8.658;2022-12-20T08:46:51;10.47;;;9.33;;
8636;SDS011;4356;49.068;8.658;2022-12-20T08:49:18;12.37;;;11.07;;
8636;SDS011;4356;49.068;8.658;2022-12-20T08:51:43;13.13;;;11.80;;
8636;SDS011;4356;49.068;8.658;2022-12-20T08:54:09;13.33;;;11.93;;
8636;SDS011;4356;49.068;8.658;2022-12-20T08:56:35;14.57;;;12.47;;
8636;SDS011;4356;49.068;8.658;2022-12-20T08:59:01;13.27;;;12.00;;
8636;SDS011;4356;49.068;8.658;2022-12-20T09:01:26;13.43;;;11.97;;
8636;SDS011;4356;49.068;8.658;2022-12-20T09:03:54;13.17;;;11.87;;
8636;SDS011;4356;49.068;8.658;2022-12-20T09:06:20;12.23;;;11.00;;
8636;SDS011;4356;49.068;8.658;2022-12-20T09:08:50;10.70;;;9.60;;
8636;SDS011;4356;49.068;8.658;2022-12-20T09:11:17;11.80;;;10.17;;
8636;SDS011;4356;49.068;8.658;2022-12-20T09:13:46;12.50;;;11.27;;
8636;SDS011;4356;49.068;8.658;2022-12-20T09:16:16;10.03;;;9.07;;
8636;SDS011;4356;49.068;8.658;2022-12-20T09:18:43;8.87;;;8.07;;
8636;SDS011;4356;49.068;8.658;2022-12-20T09:21:12;9.37;;;8.40;;
8636;SDS011;4356;49.068;8.658;2022-12-20T09:23:37;9.30;;;8.37;;
8636;SDS011;4356;49.068;8.658;2022-12-20T09:26:05;9.23;;;8.43;;
8636;SDS011;4356;49.068;8.658;2022-12-20T09:28:40;9.23;;;8.33;;
8636;SDS011;4356;49.068;8.658;2022-12-20T09:31:13;8.63;;;7.80;;
8636;SDS011;4356;49.068;8.658;2022-12-20T09:33:41;8.73;;;7.93;;
8636;SDS011;4356;49.068;8.658;2022-12-20T09:36:26;8.80;;;7.97;;
8636;SDS011;4356;49.068;8.658;2022-12-20T09:38:54;11.20;;;8.23;;
8636;SDS011;4356;49.068;8.658;2022-12-20T09:41:36;9.53;;;8.53;;
8636;SDS011;4356;49.068;8.658;2022-12-20T09:44:09;8.40;;;7.70;;
8636;SDS011;4356;49.068;8.658;2022-12-20T09:46:37;11.33;;;10.23;;
8636;SDS011;4356;49.068;8.658;2022-12-20T09:49:04;12.43;;;10.67;;
8636;SDS011;4356;49.068;8.658;2022-12-20T09:51:46;12.07;;;10.87;;
8636;SDS011;4356;49.068;8.658;2022-12-20T09:57:26;10.43;;;9.43;;
8636;SDS011;4356;49.068;8.658;2022-12-20T10:00:00;11.00;;;9.90;;
8636;SDS011;4356;49.068;8.658;2022-12-20T10:02:26;12.10;;;10.00;;
8636;SDS011;4356;49.068;8.658;2022-12-20T10:04:54;10.33;;;9.30;;
8636;SDS011;4356;49.068;8.658;2022-12-20T10:13:29;8.97;;;8.20;;
8636;SDS011;4356;49.068;8.658;2022-12-20T10:16:28;10.20;;;8.63;;
8636;SDS011;4356;49.068;8.658;2022-12-20T10:19:22;14.47;;;9.37;;
8636;SDS011;4356;49.068;8.658;2022-12-20T10:28:03;8.67;;;7.87;;
8636;SDS011;4356;49.068;8.658;2022-12-20T10:30:41;8.87;;;8.17;;
8636;SDS011;4356;49.068;8.658;2022-12-20T10:33:11;8.37;;;7.53;;
8636;SDS011;4356;49.068;8.658;2022-12-20T10:35:48;7.83;;;7.20;;
8636;SDS011;4356;49.068;8.658;2022-12-20T10:38:15;8.43;;;7.63;;
8636;SDS011;4356;49.068;8.658;2022-12-20T10:40:46;7.33;;;6.73;;
8636;SDS011;4356;49.068;8.658;2022-12-20T10:43:23;7.90;;;7.27;;
8636;SDS011;4356;49.068;8.658;2022-12-20T10:46:00;9.03;;;8.33;;
8636;SDS011;4356;49.068;8.658;2022-12-20T10:48:29;8.37;;;7.67;;
8636;SDS011;4356;49.068;8.658;2022-12-20T10:50:58;19.73;;;16.37;;
8636;SDS011;4356;49.068;8.658;2022-12-20T10:53:28;10.40;;;9.37;;
8636;SDS011;4356;49.068;8.658;2022-12-20T10:56:16;9.70;;;8.73;;
8636;SDS011;4356;49.068;8.658;2022-12-20T11:01:33;11.60;;;9.37;;
8636;SDS011;4356;49.068;8.658;2022-12-20T11:04:01;11.80;;;10.57;;
8636;SDS011;4356;49.068;8.658;2022-12-20T11:06:50;12.93;;;10.67;;
8636;SDS011;4356;49.068;8.658;2022-12-20T11:12:00;11.20;;;9.97;;
8636;SDS011;4356;49.068;8.658;2022-12-20T11:14:26;12.07;;;10.87;;
8636;SDS011;4356;49.068;8.658;2022-12-20T11:16:52;13.13;;;9.73;;
8636;SDS011;4356;49.068;8.658;2022-12-20T11:30:31;16.07;;;9.37;;
8636;SDS011;4356;49.068;8.658;2022-12-20T11:35:58;9.40;;;8.50;;
8636;SDS011;4356;49.068;8.658;2022-12-20T11:43:42;8.80;;;8.03;;
8636;SDS011;4356;49.068;8.658;2022-12-20T11:46:27;10.97;;;9.87;;
8636;SDS011;4356;49.068;8.658;2022-12-20T11:49:12;10.47;;;9.37;;
8636;SDS011;4356;49.068;8.658;2022-12-20T11:57:01;10.63;;;8.90;;
8636;SDS011;4356;49.068;8.658;2022-12-20T12:04:57;9.23;;;8.23;;
8636;SDS011;4356;49.068;8.658;2022-12-20T12:07:30;10.83;;;9.30;;
8636;SDS011;4356;49.068;8.658;2022-12-20T12:09:59;9.17;;;8.37;;
8636;SDS011;4356;49.068;8.658;2022-12-20T12:12:37;9.73;;;8.83;;
8636;SDS011;4356;49.068;8.658;2022-12-20T12:20:33;8.87;;;8.17;;
8636;SDS011;4356;49.068;8.658;2022-12-20T12:23:26;9.90;;;8.97;;
8636;SDS011;4356;49.068;8.658;2022-12-20T12:26:08;9.47;;;8.60;;
8636;SDS011;4356;49.068;8.658;2022-12-20T12:28:38;8.80;;;7.87;;
8636;SDS011;4356;49.068;8.658;2022-12-20T12:31:06;9.73;;;7.63;;
8636;SDS011;4356;49.068;8.658;2022-12-20T12:34:22;8.87;;;8.10;;
8636;SDS011;4356;49.068;8.658;2022-12-20T12:39:53;10.77;;;8.40;;
8636;SDS011;4356;49.068;8.658;2022-12-20T12:45:26;8.77;;;7.97;;
8636;SDS011;4356;49.068;8.658;2022-12-20T12:50:45;8.77;;;7.87;;
8636;SDS011;4356;49.068;8.658;2022-12-20T12:53:21;9.07;;;8.20;;
8636;SDS011;4356;49.068;8.658;2022-12-20T13:09:20;9.47;;;7.83;;
8636;SDS011;4356;49.068;8.658;2022-12-20T13:11:49;9.30;;;8.03;;
8636;SDS011;4356;49.068;8.658;2022-12-20T13:16:53;9.17;;;7.73;;
8636;SDS011;4356;49.068;8.658;2022-12-20T13:19:50;8.07;;;7.37;;
8636;SDS011;4356;49.068;8.658;2022-12-20T13:22:19;9.03;;;8.13;;
8636;SDS011;4356;49.068;8.658;2022-12-20T13:27:26;8.97;;;8.20;;
8636;SDS011;4356;49.068;8.658;2022-12-20T13:29:53;9.40;;;8.50;;
8636;SDS011;4356;49.068;8.658;2022-12-20T13:40:19;8.93;;;8.03;;
8636;SDS011;4356;49.068;8.658;2022-12-20T13:42:55;8.93;;;8.13;;
8636;SDS011;4356;49.068;8.658;2022-12-20T13:45:23;9.37;;;8.53;;
8636;SDS011;4356;49.068;8.658;2022-12-20T13:47:53;9.40;;;8.50;;
8636;SDS011;4356;49.068;8.658;2022-12-20T13:50:28;9.10;;;8.23;;
8636;SDS011;4356;49.068;8.658;2022-12-20T13:52:59;10.57;;;9.47;;
8636;SDS011;4356;49.068;8.658;2022-12-20T13:55:31;9.17;;;8.27;;
8636;SDS011;4356;49.068;8.658;2022-12-20T13:58:04;9.07;;;8.13;;
8636;SDS011;4356;49.068;8.658;2022-12-20T14:00:35;9.60;;;8.70;;
8636;SDS011;4356;49.068;8.658;2022-12-20T14:03:02;8.90;;;8.10;;
8636;SDS011;4356;49.068;8.658;2022-12-20T14:05:32;9.27;;;8.37;;
8636;SDS011;4356;49.068;8.658;2022-12-20T14:08:02;9.37;;;8.27;;
8636;SDS011;4356;49.068;8.658;2022-12-20T14:10:37;9.67;;;8.77;;
8636;SDS011;4356;49.068;8.658;2022-12-20T14:13:13;9.63;;;8.73;;
8636;SDS011;4356;49.068;8.658;2022-12-20T14:15:49;10.23;;;8.90;;
8636;SDS011;4356;49.068;8.658;2022-12-20T14:18:17;11.13;;;9.50;;
8636;SDS011;4356;49.068;8.658;2022-12-20T14:23:20;9.93;;;8.77;;
8636;SDS011;4356;49.068;8.658;2022-12-20T14:25:55;10.07;;;9.07;;
8636;SDS011;4356;49.068;8.658;2022-12-20T14:28:26;10.50;;;9.57;;
8636;SDS011;4356;49.068;8.658;2022-12-20T14:30:56;10.33;;;9.40;;
8636;SDS011;4356;49.068;8.658;2022-12-20T14:33:25;10.67;;;9.60;;
8636;SDS011;4356;49.068;8.658;2022-12-20T14:35:54;10.70;;;8.93;;
8636;SDS011;4356;49.068;8.658;2022-12-20T14:38:22;9.83;;;9.03;;
8636;SDS011;4356;49.068;8.658;2022-12-20T14:40:52;9.40;;;8.60;;
8636;SDS011;4356;49.068;8.658;2022-12-20T14:43:27;10.70;;;9.63;;
8636;SDS011;4356;49.068;8.658;2022-12-20T14:48:41;10.27;;;9.20;;
8636;SDS011;4356;49.068;8.658;2022-12-20T14:51:07;10.87;;;9.20;;
8636;SDS011;4356;49.068;8.658;2022-12-20T14:53:34;11.03;;;9.43;;
8636;SDS011;4356;49.068;8.658;2022-12-20T14:56:01;14.30;;;12.83;;
8636;SDS011;4356;49.068;8.658;2022-12-20T14:58:31;10.33;;;9.23;;
8636;SDS011;4356;49.068;8.658;2022-12-20T15:00:59;10.47;;;9.47;;
8636;SDS011;4356;49.068;8.658;2022-12-20T15:03:55;10.53;;;9.30;;
8636;SDS011;4356;49.068;8.658;2022-12-20T15:09:10;9.40;;;8.50;;
8636;SDS011;4356;49.068;8.658;2022-12-20T15:11:36;8.93;;;8.13;;
8636;SDS011;4356;49.068;8.658;2022-12-20T15:14:06;8.93;;;8.13;;
8636;SDS011;4356;49.068;8.658;2022-12-20T15:17:11;9.23;;;7.83;;
8636;SDS011;4356;49.068;8.658;2022-12-20T15:19:41;8.97;;;8.10;;
8636;SDS011;4356;49.068;8.658;2022-12-20T15:22:14;8.67;;;7.77;;
8636;SDS011;4356;49.068;8.658;2022-12-20T15:24:42;10.37;;;8.70;;
8636;SDS011;4356;49.068;8.658;2022-12-20T15:27:12;9.73;;;8.83;;
8636;SDS011;4356;49.068;8.658;2022-12-20T15:29:38;9.00;;;8.20;;
8636;SDS011;4356;49.068;8.658;2022-12-20T15:32:05;9.43;;;8.13;;
8636;SDS011;4356;49.068;8.658;2022-12-20T15:34:49;9.03;;;8.20;;
8636;SDS011;4356;49.068;8.658;2022-12-20T15:37:15;9.07;;;8.17;;
8636;SDS011;4356;49.068;8.658;2022-12-20T15:39:41;9.37;;;8.30;;
8636;SDS011;4356;49.068;8.658;2022-12-20T15:42:08;15.80;;;13.50;;
8636;SDS011;4356;49.068;8.658;2022-12-20T15:44:40;16.50;;;14.80;;
8636;SDS011;4356;49.068;8.658;2022-12-20T15:47:13;16.83;;;14.27;;
8636;SDS011;4356;49.068;8.658;2022-12-20T15:49:42;12.60;;;11.30;;
8636;SDS011;4356;49.068;8.658;2022-12-20T15:52:09;10.80;;;8.50;;
8636;SDS011;4356;49.068;8.658;2022-12-20T15:54:43;7.50;;;6.70;;
8636;SDS011;4356;49.068;8.658;2022-12-20T15:57:10;6.80;;;6.20;;
8636;SDS011;4356;49.068;8.658;2022-12-20T15:59:38;19.80;;;17.67;;
8636;SDS011;4356;49.068;8.658;2022-12-20T16:02:26;11.37;;;8.23;;
8636;SDS011;4356;49.068;8.658;2022-12-20T16:04:54;7.00;;;6.30;;
8636;SDS011;4356;49.068;8.658;2022-12-20T16:07:20;6.40;;;5.90;;
8636;SDS011;4356;49.068;8.658;2022-12-20T16:09:50;7.47;;;6.20;;
8636;SDS011;4356;49.068;8.658;2022-12-20T16:12:24;7.83;;;7.20;;
8636;SDS011;4356;49.068;8.658;2022-12-20T16:14:56;8.63;;;7.93;;
8636;SDS011;4356;49.068;8.658;2022-12-20T16:17:22;8.97;;;7.23;;
8636;SDS011;4356;49.068;8.658;2022-12-20T16:19:48;7.80;;;7.10;;
8636;SDS011;4356;49.068;8.658;2022-12-20T16:22:15;7.77;;;6.97;;
8636;SDS011;4356;49.068;8.658;2022-12-20T16:24:43;12.40;;;10.40;;
8636;SDS011;4356;49.068;8.658;2022-12-20T16:27:10;15.17;;;13.07;;
8636;SDS011;4356;49.068;8.658;2022-12-20T16:29:36;18.70;;;15.27;;
8636;SDS011;4356;49.068;8.658;2022-12-20T16:32:02;20.53;;;16.47;;
8636;SDS011;4356;49.068;8.658;2022-12-20T16:34:32;15.27;;;13.70;;
8636;SDS011;4356;49.068;8.658;2022-12-20T16:36:57;14.93;;;13.37;;
8636;SDS011;4356;49.068;8.658;2022-12-20T16:39:23;20.67;;;16.63;;
8636;SDS011;4356;49.068;8.658;2022-12-20T16:41:49;22.57;;;19.00;;
8636;SDS011;4356;49.068;8.658;2022-12-20T16:44:14;24.10;;;18.00;;
8636;SDS011;4356;49.068;8.658;2022-12-20T16:46:41;17.13;;;15.33;;
8636;SDS011;4356;49.068;8.658;2022-12-20T16:49:07;20.30;;;16.70;;
8636;SDS011;4356;49.068;8.658;2022-12-20T16:51:39;19.03;;;13.67;;
8636;SDS011;4356;49.068;8.658;2022-12-20T16:54:12;14.47;;;13.00;;
8636;SDS011;4356;49.068;8.658;2022-12-20T16:56:39;15.47;;;11.90;;
8636;SDS011;4356;49.068;8.658;2022-12-20T16:59:05;13.17;;;11.77;;
8636;SDS011;4356;49.068;8.658;2022-12-20T17:01:35;12.83;;;10.17;;
8636;SDS011;4356;49.068;8.658;2022-12-20T17:04:03;13.60;;;10.73;;
8636;SDS011;4356;49.068;8.658;2022-12-20T17:06:30;12.27;;;11.17;;
8636;SDS011;4356;49.068;8.658;2022-12-20T17:08:56;11.40;;;10.27;;